createdAt,value
2019-04-30T00:02:29.306Z,10.81
2019-04-30T00:04:52.906Z,10.79
2019-04-30T00:07:20.162Z,10.80
2019-04-30T00:09:49.331Z,10.80
2019-04-30T00:12:16.456Z,10.80
2019-04-30T00:14:44.894Z,10.80
2019-04-30T00:17:15.915Z,10.78
2019-04-30T00:19:41.158Z,10.79
2019-04-30T00:22:08.290Z,10.79
2019-04-30T00:24:35.581Z,10.78
2019-04-30T00:27:05.012Z,10.77
2019-04-30T00:29:32.064Z,10.78
2019-04-30T00:32:04.215Z,10.79
2019-04-30T00:34:30.914Z,10.79
2019-04-30T00:36:57.653Z,10.77
2019-04-30T00:39:27.032Z,10.75
2019-04-30T00:41:54.662Z,10.74
2019-04-30T00:44:24.778Z,10.74
2019-04-30T00:46:55.777Z,10.75
2019-04-30T00:49:24.160Z,10.75
2019-04-30T00:51:58.061Z,10.75
2019-04-30T00:54:27.987Z,10.73
2019-04-30T00:56:52.411Z,10.70
2019-04-30T00:59:19.822Z,10.72
2019-04-30T01:02:11.866Z,10.70
2019-04-30T01:04:44.954Z,10.69
2019-04-30T01:07:12.831Z,10.70
2019-04-30T01:09:46.530Z,10.70
2019-04-30T01:12:08.998Z,10.71
2019-04-30T01:14:36.074Z,10.68
2019-04-30T01:17:07.848Z,10.67
2019-04-30T01:19:33.049Z,10.69
2019-04-30T01:22:00.398Z,10.68
2019-04-30T01:24:31.651Z,10.67
2019-04-30T01:27:06.599Z,10.67
2019-04-30T01:29:31.165Z,10.66
2019-04-30T01:31:58.727Z,10.66
2019-04-30T01:34:25.873Z,10.64
2019-04-30T01:36:53.548Z,10.64
2019-04-30T01:39:23.761Z,10.64
2019-04-30T01:41:49.991Z,10.65
2019-04-30T01:44:17.085Z,10.65
2019-04-30T01:46:48.266Z,10.65
2019-04-30T01:49:14.305Z,10.65
2019-04-30T01:51:41.426Z,10.65
2019-04-30T01:54:09.232Z,10.64
2019-04-30T01:56:47.506Z,10.63
2019-04-30T01:59:19.064Z,10.64
2019-04-30T02:01:48.630Z,10.62
2019-04-30T02:04:15.950Z,10.61
2019-04-30T02:06:43.169Z,10.63
2019-04-30T02:09:10.281Z,10.62
2019-04-30T02:11:38.823Z,10.62
2019-04-30T02:14:06.029Z,10.60
2019-04-30T02:16:33.127Z,10.58
2019-04-30T02:19:00.243Z,10.58
2019-04-30T02:21:27.329Z,10.59
2019-04-30T02:23:54.410Z,10.56
2019-04-30T02:26:21.528Z,10.56
2019-04-30T02:28:49.513Z,10.54
2019-04-30T02:31:19.324Z,10.54
2019-04-30T02:33:50.277Z,10.56
2019-04-30T02:36:45.957Z,10.55
2019-04-30T02:39:13.045Z,10.55
2019-04-30T02:41:41.405Z,10.52
2019-04-30T02:44:09.853Z,10.51
2019-04-30T02:46:40.504Z,10.50
2019-04-30T02:49:10.501Z,10.48
2019-04-30T02:51:39.962Z,10.45
2019-04-30T02:54:23.705Z,10.43
2019-04-30T02:56:53.859Z,10.42
2019-04-30T02:59:20.810Z,10.42
2019-04-30T03:01:50.251Z,10.40
2019-04-30T03:04:19.413Z,10.40
2019-04-30T03:06:45.456Z,10.40
2019-04-30T03:09:13.634Z,10.40
2019-04-30T03:11:41.091Z,10.37
2019-04-30T03:14:10.343Z,10.35
2019-04-30T03:16:52.718Z,10.32
2019-04-30T03:19:41.898Z,10.25
2019-04-30T03:22:13.545Z,10.22
2019-04-30T03:24:42.908Z,10.20
2019-04-30T03:27:12.321Z,10.22
2019-04-30T03:29:40.491Z,10.20
2019-04-30T03:32:12.404Z,10.18
2019-04-30T03:34:41.369Z,10.19
2019-04-30T03:37:05.439Z,10.17
2019-04-30T03:39:34.039Z,10.20
2019-04-30T03:42:01.323Z,10.18
2019-04-30T03:47:36.334Z,10.18
2019-04-30T03:50:04.688Z,10.17
2019-04-30T03:52:31.636Z,10.17
2019-04-30T03:55:02.444Z,10.19
2019-04-30T03:57:30.115Z,10.19
2019-04-30T03:59:56.342Z,10.21
2019-04-30T04:02:40.512Z,10.21
2019-04-30T04:05:40.001Z,10.20
2019-04-30T04:08:29.276Z,10.18
2019-04-30T04:11:15.465Z,10.16
2019-04-30T04:13:42.431Z,10.15
2019-04-30T04:16:09.754Z,10.15
2019-04-30T04:18:36.905Z,10.14
2019-04-30T04:21:12.109Z,10.13
2019-04-30T04:23:33.039Z,10.12
2019-04-30T04:26:00.067Z,10.10
2019-04-30T04:28:29.425Z,10.07
2019-04-30T04:30:56.138Z,10.08
2019-04-30T04:33:23.274Z,10.06
2019-04-30T04:35:50.416Z,10.06
2019-04-30T04:38:20.201Z,10.06
2019-04-30T04:40:46.517Z,10.05
2019-04-30T04:43:15.174Z,10.04
2019-04-30T04:45:43.835Z,10.02
2019-04-30T04:48:10.958Z,10.01
2019-04-30T04:50:39.951Z,10.00
2019-04-30T04:53:08.885Z,10.01
2019-04-30T04:55:35.736Z,10.01
2019-04-30T04:58:02.685Z,9.97
2019-04-30T05:00:29.703Z,9.98
2019-04-30T05:03:22.273Z,9.99
2019-04-30T05:05:50.413Z,9.95
2019-04-30T05:08:21.916Z,9.92
2019-04-30T05:10:49.505Z,9.92
2019-04-30T05:13:16.816Z,9.91
2019-04-30T05:15:43.744Z,9.89
2019-04-30T05:18:10.687Z,9.93
2019-04-30T05:20:39.885Z,9.93
2019-04-30T05:23:06.729Z,9.95
2019-04-30T05:25:33.787Z,9.96
2019-04-30T05:28:00.832Z,9.98
2019-04-30T05:30:29.462Z,9.98
2019-04-30T05:32:56.489Z,9.97
2019-04-30T05:35:23.590Z,9.97
2019-04-30T05:37:50.526Z,9.94
2019-04-30T05:40:18.889Z,9.92
2019-04-30T05:42:46.104Z,9.93
2019-04-30T05:45:13.357Z,9.95
2019-04-30T05:47:58.788Z,10.00
2019-04-30T05:50:32.224Z,10.01
2019-04-30T05:52:59.783Z,10.05
2019-04-30T05:55:26.739Z,10.09
2019-04-30T05:57:56.339Z,10.10
2019-04-30T06:00:22.758Z,10.11
2019-04-30T06:02:49.897Z,10.08
2019-04-30T06:05:18.760Z,10.08
2019-04-30T06:07:45.970Z,10.09
2019-04-30T06:10:23.184Z,10.08
2019-04-30T06:12:54.946Z,10.10
2019-04-30T06:15:41.367Z,10.06
2019-04-30T06:18:13.493Z,10.06
2019-04-30T06:20:38.625Z,10.09
2019-04-30T06:23:05.686Z,10.09
2019-04-30T06:25:52.097Z,10.12
2019-04-30T06:28:02.069Z,10.17
2019-04-30T06:30:29.814Z,10.28
2019-04-30T06:32:57.551Z,10.38
2019-04-30T06:35:25.785Z,10.43
2019-04-30T06:37:52.791Z,10.54
2019-04-30T06:40:19.945Z,10.62
2019-04-30T06:42:49.377Z,10.67
2019-04-30T06:45:16.608Z,10.67
2019-04-30T06:47:43.546Z,10.63
2019-04-30T06:50:12.490Z,10.62
2019-04-30T06:52:39.494Z,10.65
2019-04-30T06:55:06.511Z,10.63
2019-04-30T06:57:35.271Z,10.68
2019-04-30T07:00:02.348Z,10.70
2019-04-30T07:02:30.951Z,10.72
2019-04-30T07:04:58.779Z,10.69
2019-04-30T07:07:37.110Z,10.68
2019-04-30T07:10:16.969Z,10.67
2019-04-30T07:12:53.102Z,10.68
2019-04-30T07:15:20.033Z,10.68
2019-04-30T07:17:49.009Z,10.69
2019-04-30T07:20:15.829Z,10.69
2019-04-30T07:22:50.069Z,10.77
2019-04-30T07:25:11.871Z,10.89
2019-04-30T07:27:40.129Z,10.99
2019-04-30T07:30:09.928Z,11.07
2019-04-30T07:32:38.738Z,11.06
2019-04-30T07:35:06.087Z,11.16
2019-04-30T07:37:33.065Z,11.25
2019-04-30T07:40:00.110Z,11.27
2019-04-30T07:42:28.894Z,11.32
2019-04-30T07:44:56.019Z,11.45
2019-04-30T07:47:22.974Z,11.50
2019-04-30T07:49:55.671Z,11.61
2019-04-30T07:52:21.717Z,11.63
2019-04-30T07:54:52.116Z,11.61
2019-04-30T07:57:19.389Z,11.72
2019-04-30T07:59:46.450Z,11.79
2019-04-30T08:02:14.729Z,11.85
2019-04-30T08:05:10.501Z,11.85
2019-04-30T08:07:37.040Z,11.91
2019-04-30T08:10:05.690Z,11.93
2019-04-30T08:12:36.428Z,11.98
2019-04-30T08:15:01.625Z,12.01
2019-04-30T08:17:29.004Z,12.17
2019-04-30T08:19:55.970Z,12.37
2019-04-30T08:22:22.912Z,12.49
2019-04-30T08:24:49.909Z,12.62
2019-04-30T08:27:19.159Z,12.73
2019-04-30T08:29:46.131Z,12.77
2019-04-30T08:32:13.123Z,12.81
2019-04-30T08:34:40.115Z,13.00
2019-04-30T08:37:17.083Z,13.10
2019-04-30T08:39:39.727Z,13.07
2019-04-30T08:42:14.389Z,13.05
2019-04-30T08:44:41.386Z,13.16
2019-04-30T08:47:08.702Z,13.32
2019-04-30T08:49:36.041Z,13.34
2019-04-30T08:52:03.153Z,13.40
2019-04-30T08:54:30.226Z,13.43
2019-04-30T08:56:57.169Z,13.74
2019-04-30T08:59:24.191Z,13.98
2019-04-30T09:01:51.150Z,13.99
2019-04-30T09:04:20.129Z,13.81
2019-04-30T09:06:49.158Z,13.57
2019-04-30T09:09:20.629Z,13.43
2019-04-30T09:11:53.040Z,13.56
2019-04-30T09:14:18.545Z,13.72
2019-04-30T09:16:45.471Z,13.76
2019-04-30T09:19:12.545Z,13.81
2019-04-30T09:21:41.325Z,14.20
2019-04-30T09:24:09.494Z,14.38
2019-04-30T09:26:36.623Z,14.40
2019-04-30T09:29:03.711Z,14.67
2019-04-30T09:31:30.628Z,14.84
2019-04-30T09:33:58.814Z,14.74
2019-04-30T09:36:26.457Z,14.45
2019-04-30T09:38:53.386Z,14.32
2019-04-30T09:41:20.345Z,14.23
2019-04-30T09:43:49.245Z,14.18
2019-04-30T09:46:24.566Z,14.25
2019-04-30T09:48:45.071Z,14.15
2019-04-30T09:51:20.695Z,13.94
2019-04-30T09:53:56.911Z,13.84
2019-04-30T09:56:39.339Z,13.80
2019-04-30T09:59:06.405Z,13.77
2019-04-30T10:01:33.442Z,13.81
2019-04-30T10:04:00.965Z,13.92
2019-04-30T10:06:39.019Z,13.96
2019-04-30T10:08:57.053Z,14.20
2019-04-30T10:11:38.785Z,14.46
2019-04-30T10:14:05.757Z,14.90
2019-04-30T10:16:41.348Z,14.75
2019-04-30T10:19:10.204Z,14.80
2019-04-30T10:21:38.887Z,14.95
2019-04-30T10:24:14.756Z,14.95
2019-04-30T10:26:34.836Z,14.84
2019-04-30T10:29:02.287Z,14.57
2019-04-30T10:31:29.422Z,14.34
2019-04-30T10:33:58.525Z,14.31
2019-04-30T10:36:25.430Z,14.62
2019-04-30T10:38:52.353Z,14.96
2019-04-30T10:41:20.623Z,14.94
2019-04-30T10:43:49.190Z,14.68
2019-04-30T10:46:16.557Z,14.69
2019-04-30T10:48:43.561Z,14.91
2019-04-30T10:51:10.497Z,14.94
2019-04-30T10:53:37.453Z,14.99
2019-04-30T10:56:04.423Z,15.16
2019-04-30T10:58:31.393Z,15.40
2019-04-30T11:00:59.499Z,15.66
2019-04-30T11:03:29.063Z,15.87
2019-04-30T11:05:56.191Z,15.80
2019-04-30T11:08:23.146Z,15.73
2019-04-30T11:10:50.213Z,16.06
2019-04-30T11:13:17.151Z,16.15
2019-04-30T11:15:44.424Z,16.00
2019-04-30T11:18:11.561Z,16.08
2019-04-30T11:20:39.719Z,16.29
2019-04-30T11:23:14.195Z,16.67
2019-04-30T11:25:36.908Z,17.02
2019-04-30T11:28:04.903Z,17.05
2019-04-30T11:30:32.605Z,16.67
2019-04-30T11:32:59.780Z,16.39
2019-04-30T11:35:26.886Z,16.48
2019-04-30T11:37:53.831Z,16.47
2019-04-30T11:40:34.296Z,16.93
2019-04-30T11:42:54.955Z,17.31
2019-04-30T11:45:24.123Z,17.57
2019-04-30T11:47:53.581Z,17.73
2019-04-30T11:50:20.736Z,18.18
2019-04-30T11:52:47.764Z,18.44
2019-04-30T11:55:16.144Z,18.65
2019-04-30T11:57:43.084Z,18.55
2019-04-30T12:00:14.731Z,18.85
2019-04-30T12:02:42.027Z,19.05
2019-04-30T12:05:12.143Z,19.52
2019-04-30T12:07:53.527Z,19.72
2019-04-30T12:10:40.131Z,19.60
2019-04-30T12:13:23.096Z,19.77
2019-04-30T12:15:50.208Z,20.26
2019-04-30T12:18:17.190Z,20.16
2019-04-30T12:20:44.183Z,20.26
2019-04-30T12:23:11.898Z,20.50
2019-04-30T12:25:41.264Z,20.47
2019-04-30T12:28:09.516Z,20.22
2019-04-30T12:31:31.565Z,20.25
2019-04-30T12:33:58.531Z,20.62
2019-04-30T12:36:25.500Z,20.51
2019-04-30T12:38:52.486Z,20.58
2019-04-30T12:41:19.424Z,20.96
2019-04-30T12:43:46.361Z,20.86
2019-04-30T12:46:13.407Z,20.55
2019-04-30T12:48:54.841Z,20.89
2019-04-30T12:51:45.308Z,21.03
2019-04-30T12:54:10.583Z,21.14
2019-04-30T12:56:55.739Z,21.03
2019-04-30T12:59:22.775Z,21.34
2019-04-30T13:01:50.977Z,21.43
2019-04-30T13:04:19.380Z,21.22
2019-04-30T13:07:04.240Z,21.48
2019-04-30T13:09:32.253Z,21.41
2019-04-30T13:12:00.721Z,21.19
2019-04-30T13:14:29.943Z,21.29
2019-04-30T13:17:17.645Z,21.47
2019-04-30T13:19:44.621Z,21.62
2019-04-30T13:22:11.673Z,21.97
2019-04-30T13:24:39.872Z,21.96
2019-04-30T13:27:09.420Z,22.03
2019-04-30T13:29:55.031Z,22.53
2019-04-30T13:32:30.064Z,22.53
2019-04-30T13:34:54.738Z,21.99
2019-04-30T13:37:21.710Z,21.75
2019-04-30T13:40:11.142Z,21.38
2019-04-30T13:42:41.719Z,21.14
2019-04-30T13:45:10.077Z,20.90
2019-04-30T13:47:38.975Z,21.16
2019-04-30T13:50:05.939Z,20.67
2019-04-30T13:52:32.894Z,20.03
2019-04-30T13:54:59.892Z,20.26
2019-04-30T13:57:26.841Z,20.83
2019-04-30T13:59:58.622Z,20.77
2019-04-30T14:02:26.246Z,21.05
2019-04-30T14:05:12.351Z,20.78
2019-04-30T14:10:49.332Z,20.46
2019-04-30T14:13:17.642Z,20.14
2019-04-30T14:15:46.429Z,20.35
2019-04-30T14:18:27.933Z,20.60
2019-04-30T14:20:44.821Z,20.65
2019-04-30T14:23:13.682Z,20.83
2019-04-30T14:25:40.697Z,20.75
2019-04-30T14:28:09.384Z,20.62
2019-04-30T14:30:41.011Z,20.23
2019-04-30T14:33:09.443Z,20.31
2019-04-30T14:35:38.488Z,20.26
2019-04-30T14:38:05.504Z,19.95
2019-04-30T14:40:34.541Z,19.80
2019-04-30T14:43:13.786Z,19.85
2019-04-30T14:46:03.240Z,19.97
2019-04-30T14:48:36.252Z,20.03
2019-04-30T14:51:04.147Z,19.92
2019-04-30T14:53:48.989Z,19.96
2019-04-30T14:56:35.695Z,19.57
2019-04-30T14:59:20.926Z,19.61
2019-04-30T15:02:09.604Z,19.62
2019-04-30T15:04:36.718Z,19.60
2019-04-30T15:07:03.655Z,19.46
2019-04-30T15:09:30.625Z,18.88
2019-04-30T15:11:58.622Z,18.92
2019-04-30T15:14:25.729Z,19.05
2019-04-30T15:17:29.346Z,18.88
2019-04-30T15:19:56.331Z,18.99
2019-04-30T15:22:23.323Z,18.97
2019-04-30T15:24:50.316Z,18.86
2019-04-30T15:27:19.096Z,18.84
2019-04-30T15:29:46.271Z,18.76
2019-04-30T15:32:13.251Z,18.57
2019-04-30T15:34:42.396Z,18.45
2019-04-30T15:37:19.052Z,18.41
2019-04-30T15:39:43.485Z,18.51
2019-04-30T15:42:11.942Z,18.58
2019-04-30T15:44:42.613Z,18.47
2019-04-30T15:47:09.183Z,18.49
2019-04-30T15:49:40.811Z,18.59
2019-04-30T15:52:10.617Z,18.57
2019-04-30T15:54:36.845Z,18.37
2019-04-30T15:57:04.062Z,18.59
2019-04-30T15:59:41.205Z,18.46
2019-04-30T16:02:53.479Z,18.28
2019-04-30T16:05:34.406Z,18.14
2019-04-30T16:08:19.768Z,18.03
2019-04-30T16:10:58.564Z,17.98
2019-04-30T16:13:30.567Z,17.86
2019-04-30T16:15:59.182Z,17.55
2019-04-30T16:18:30.596Z,17.68
2019-04-30T16:20:59.424Z,17.59
2019-04-30T16:23:26.404Z,17.47
2019-04-30T16:25:53.389Z,17.50
2019-04-30T16:28:20.359Z,17.48
2019-04-30T16:30:47.473Z,17.26
2019-04-30T16:33:43.300Z,17.02
2019-04-30T16:36:10.260Z,17.00
2019-04-30T16:38:38.658Z,16.89
2019-04-30T16:41:05.913Z,16.82
2019-04-30T16:43:33.005Z,16.80
2019-04-30T16:45:59.955Z,16.69
2019-04-30T16:48:29.055Z,16.63
2019-04-30T16:50:56.112Z,16.74
2019-04-30T16:53:25.098Z,16.80
2019-04-30T16:55:52.066Z,16.94
2019-04-30T16:58:20.205Z,16.93
2019-04-30T17:00:49.113Z,16.69
2019-04-30T17:03:23.306Z,16.45
2019-04-30T17:05:55.934Z,16.25
2019-04-30T17:11:59.486Z,16.08
2019-04-30T17:14:28.508Z,16.04
2019-04-30T17:16:55.800Z,15.93
2019-04-30T17:19:22.791Z,15.93
2019-04-30T17:21:51.782Z,15.76
2019-04-30T17:24:27.745Z,15.67
2019-04-30T17:26:54.768Z,15.65
2019-04-30T17:29:21.787Z,15.52
2019-04-30T17:31:48.758Z,15.45
2019-04-30T17:34:15.731Z,15.39
2019-04-30T17:36:42.725Z,15.42
2019-04-30T17:39:12.492Z,15.41
2019-04-30T17:41:39.484Z,15.38
2019-04-30T17:44:06.624Z,15.29
2019-04-30T17:46:33.627Z,15.24
2019-04-30T17:49:00.734Z,15.25
2019-04-30T17:51:36.926Z,15.16
2019-04-30T17:54:12.669Z,15.07
2019-04-30T17:56:39.980Z,15.00
2019-04-30T17:59:06.955Z,14.91
2019-04-30T18:01:34.728Z,14.75
2019-04-30T18:04:01.733Z,14.64
2019-04-30T18:06:32.897Z,14.53
2019-04-30T18:08:59.866Z,14.39
2019-04-30T18:11:26.846Z,14.25
2019-04-30T18:13:53.920Z,14.14
2019-04-30T18:16:20.885Z,14.04
2019-04-30T18:18:53.907Z,13.94
2019-04-30T18:21:26.616Z,13.87
2019-04-30T18:24:15.944Z,13.75
2019-04-30T18:26:51.316Z,13.64
2019-04-30T18:29:18.378Z,13.53
2019-04-30T18:31:55.824Z,13.44
2019-04-30T18:34:22.847Z,13.34
2019-04-30T18:36:51.261Z,13.27
2019-04-30T18:39:18.905Z,13.18
2019-04-30T18:41:46.161Z,13.08
2019-04-30T18:44:13.094Z,12.99
2019-04-30T18:46:40.306Z,12.88
2019-04-30T18:49:14.547Z,12.82
2019-04-30T18:51:42.669Z,12.75
2019-04-30T18:54:10.252Z,12.66
2019-04-30T18:56:38.907Z,12.56
2019-04-30T18:59:11.158Z,12.46
2019-04-30T19:01:38.336Z,12.40
2019-04-30T19:04:05.389Z,12.33
2019-04-30T19:06:54.217Z,12.24
2019-04-30T19:09:43.290Z,12.14
2019-04-30T19:12:39.029Z,12.06
2019-04-30T19:16:10.865Z,11.96
2019-04-30T19:18:21.250Z,11.83
2019-04-30T19:20:51.033Z,11.75
2019-04-30T19:23:19.042Z,11.70
2019-04-30T19:25:46.254Z,11.61
2019-04-30T19:28:34.974Z,11.50
2019-04-30T19:31:01.954Z,11.43
2019-04-30T19:33:31.042Z,11.40
2019-04-30T19:35:58.626Z,11.34
2019-04-30T19:38:25.733Z,11.28
2019-04-30T19:40:52.898Z,11.23
2019-04-30T19:43:28.458Z,11.13
2019-04-30T19:45:55.341Z,11.07
2019-04-30T19:48:22.339Z,11.01
2019-04-30T19:50:49.325Z,10.93
2019-04-30T19:53:19.976Z,10.86
2019-04-30T19:55:45.510Z,10.81
2019-04-30T19:58:25.299Z,10.71
2019-04-30T20:00:42.406Z,10.66
2019-04-30T20:03:09.350Z,10.60
2019-04-30T20:05:36.410Z,10.56
2019-04-30T20:08:03.772Z,10.53
2019-04-30T20:10:30.750Z,10.46
2019-04-30T20:12:58.790Z,10.40
2019-04-30T20:15:26.060Z,10.33
2019-04-30T20:17:53.028Z,10.28
2019-04-30T20:20:20.135Z,10.24
2019-04-30T20:22:47.269Z,10.21
2019-04-30T20:25:14.329Z,10.15
2019-04-30T20:27:42.120Z,10.12
2019-04-30T20:30:46.686Z,10.10
2019-04-30T20:33:13.695Z,10.04
2019-04-30T20:35:41.211Z,10.00
2019-04-30T20:39:07.494Z,9.96
2019-04-30T20:41:34.458Z,9.87
2019-04-30T20:44:01.393Z,9.81
2019-04-30T20:47:05.193Z,9.80
2019-04-30T20:49:32.251Z,9.76
2019-04-30T20:52:00.184Z,9.72
2019-04-30T20:54:45.872Z,9.66
2019-04-30T20:57:12.851Z,9.54
2019-04-30T20:59:39.913Z,9.50
2019-04-30T21:02:06.961Z,9.44
2019-04-30T21:04:33.901Z,9.38
2019-04-30T21:07:00.840Z,9.28
2019-04-30T21:09:27.967Z,9.32
2019-04-30T21:11:54.904Z,9.30
2019-04-30T21:14:40.631Z,9.27
2019-04-30T21:17:08.273Z,9.24
2019-04-30T21:19:35.219Z,9.18
2019-04-30T21:22:03.441Z,9.17
2019-04-30T21:24:30.396Z,9.13
2019-04-30T21:26:57.401Z,9.11
2019-04-30T21:29:24.485Z,9.10
2019-04-30T21:32:21.377Z,9.09
2019-04-30T21:34:55.328Z,9.03
2019-04-30T21:37:22.310Z,8.99
2019-04-30T21:39:50.128Z,8.93
2019-04-30T21:42:17.381Z,8.91
2019-04-30T21:44:44.433Z,8.88
2019-04-30T21:47:11.393Z,8.85
2019-04-30T21:49:38.386Z,8.80
2019-04-30T21:52:05.337Z,8.72
2019-04-30T21:54:32.401Z,8.62
2019-04-30T21:56:59.381Z,8.63
2019-04-30T21:59:30.731Z,8.60
2019-04-30T22:01:57.884Z,8.57
2019-04-30T22:04:24.913Z,8.55
2019-04-30T22:06:52.002Z,8.48
2019-04-30T22:09:19.437Z,8.40
2019-04-30T22:11:52.587Z,8.27
2019-04-30T22:14:19.541Z,8.20
2019-04-30T22:16:46.711Z,8.16
2019-04-30T22:19:13.808Z,8.13
2019-04-30T22:21:40.774Z,8.11
2019-04-30T22:24:07.800Z,8.09
2019-04-30T22:26:34.765Z,8.03
2019-04-30T22:29:01.727Z,7.97
2019-04-30T22:31:29.658Z,7.94
2019-04-30T22:33:58.855Z,7.92
2019-04-30T22:36:31.943Z,7.89
2019-04-30T22:39:19.980Z,7.89
2019-04-30T22:41:47.156Z,7.89
2019-04-30T22:44:14.172Z,7.87
2019-04-30T22:46:41.145Z,7.81
2019-04-30T22:49:08.282Z,7.75
2019-04-30T22:51:37.055Z,7.66
2019-04-30T22:54:07.036Z,7.59
2019-04-30T22:56:34.056Z,7.54
2019-04-30T22:59:00.986Z,7.49
2019-04-30T23:02:11.997Z,7.43
2019-04-30T23:04:40.721Z,7.39
2019-04-30T23:07:07.784Z,7.30
2019-04-30T23:09:34.852Z,7.23
2019-04-30T23:12:02.500Z,7.19
2019-04-30T23:14:29.463Z,7.16
2019-04-30T23:16:56.586Z,7.15
2019-04-30T23:19:23.687Z,7.12
2019-04-30T23:21:50.628Z,7.12
2019-04-30T23:24:17.630Z,7.09
2019-04-30T23:26:44.586Z,7.01
2019-04-30T23:29:11.664Z,6.94
2019-04-30T23:31:38.616Z,6.93
2019-04-30T23:34:17.405Z,6.92
2019-04-30T23:36:34.461Z,6.90
2019-04-30T23:39:01.518Z,6.90
2019-04-30T23:41:28.545Z,6.91
2019-04-30T23:43:55.484Z,6.89
2019-04-30T23:46:26.303Z,6.90
2019-04-30T23:48:53.347Z,6.88
2019-04-30T23:51:20.320Z,6.84
2019-04-30T23:53:54.781Z,6.80
2019-04-30T23:56:21.724Z,6.78
2019-04-30T23:58:48.747Z,6.77
